Nearby METAR Reports

 

KPMD - Palmdale, California, USA
Distance from station: NNE 12mi, 19km
Updated: Sun, 25-Feb-2024 3:53am PST
Clear
Clear
 Wind from WSW
Wind: WSW 3 mph , 6 km/h
Temperature: 43°F , 6°C
Dew Point: 36°F , 2°C
Humidity: 76%
Barometer: 30.07 inHg , 1018.3 hPa
Clouds: Clear
Visibility: 10 miles , 16 km
2024/02/25 11:53 KPMD 251153Z AUTO 24003KT 10SM CLR 06/02 A3007 RMK AO2 SLP175 T00610017 10100 20050 56005
KWJF - Lancaster/Fox, California, USA
Distance from station: N 17mi, 27km
Updated: Sun, 25-Feb-2024 3:56am PST
Clear
Clear
 Wind from calm
Wind: Calm
Temperature: 39°F , 4°C
Dew Point: 34°F , 1°C
Humidity: 81%
Barometer: 30.07 inHg , 1018.3 hPa
Clouds: Clear
Visibility: 10 miles , 16 km
2024/02/25 11:56 KWJF 251156Z AUTO 00000KT 10SM CLR 04/01 A3007 RMK AO2 SLP184 T00390011 10078 20039 56007
 
KMWS - Mount Wilson, California, USA
Distance from station: SSE 18mi, 30km
Updated: Wed, 13-May-2015 6:45am PDT
NOT Current

 Wind from S
Wind: S 3 mph , 6 km/h, Gust: 5 mph , 7 km/h
Temperature: 43°F , 6°C
Dew Point: -0°F , -18°C
Humidity: 16%
2015/05/13 13:45 KMWS 131345Z 18003G04KT 06/M18 RMK SNOW DEPTH 1.00
KWHP - La / Whiteman, California, USA
Distance from station: SW 21mi, 34km
Updated: Sat, 24-Feb-2024 5:50pm PST
NOT Current
Clear
Clear
 Wind from ESE
Wind: ESE 5 mph , 7 km/h
Temperature: 68°F , 20°C
Dew Point: 36°F , 2°C
Humidity: 30%
Barometer: 30.04 inHg , 1017.3 hPa
Clouds: Clear
Visibility: 10 miles , 16 km
2024/02/25 01:50 KWHP 250150Z 12004KT 10SM SKC 20/02 A3004
 
KBUR - Burbank, California, USA
Distance from station: SSW 22mi, 35km
Updated: Sun, 25-Feb-2024 3:53am PST
Clear
Clear
 Wind from calm
Wind: Calm
Temperature: 52°F , 11°C
Dew Point: 43°F , 6°C
Humidity: 72%
Barometer: 30.02 inHg , 1016.6 hPa
Clouds: Clear
Visibility: 10 miles , 16 km
2024/02/25 11:53 KBUR 251153Z 00000KT 10SM CLR 11/06 A3002 RMK AO2 SLP156 T01110056 10144 20111 58012
KVNY - Van Nuys, California, USA
Distance from station: SW 25mi, 40km
Updated: Sun, 25-Feb-2024 3:51am PST
Clear
Clear
 Wind from N
Wind: N 3 mph , 6 km/h
Temperature: 50°F , 10°C
Dew Point: 45°F , 7°C
Humidity: 82%
Barometer: 30.01 inHg , 1016.3 hPa
Clouds: Clear
Visibility: 10 miles , 16 km
2024/02/25 11:51 KVNY 251151Z AUTO 36003KT 10SM CLR 10/07 A3001 RMK AO2 SLP158 T01000067 10144 20100 58012
 
KEDW - Edwards Afb, California, USA
Distance from station: NNE 33mi, 53km
Updated: Sun, 25-Feb-2024 3:55am PST
Clear
Clear
 Wind from calm
Wind: Calm
Temperature: 39°F , 4°C
Dew Point: 36°F , 2°C
Humidity: 87%
Barometer: 30.05 inHg , 1017.6 hPa
Clouds: Clear
Visibility: 10 miles , 16 km
2024/02/25 11:55 KEDW 251155Z AUTO 00000KT 10SM CLR 04/02 A3005 RMK AO2 SLP171 T00430015 10080 20041 57007
KSMO - Santa Monica, California, USA
Distance from station: SSW 35mi, 57km
Updated: Sun, 25-Feb-2024 3:51am PST
Clear
Clear
 Wind from N
Wind: N 3 mph , 6 km/h
Temperature: 54°F , 12°C
Dew Point: 52°F , 11°C
Humidity: 94%
Barometer: 30.01 inHg , 1016.3 hPa
Clouds: Clear
Visibility: 10 miles , 16 km
2024/02/25 11:51 KSMO 251151Z AUTO 01003KT 10SM CLR 12/11 A3001 RMK AO2 SLP162 T01220106 10139 20117 58014
 
KLAX - Los Angeles, California, USA
Distance from station: SSW 39mi, 63km
Updated: Sun, 25-Feb-2024 3:53am PST
Mist, Mostly cloudy
Mist, Mostly cloudy
 Wind from N
Wind: N 3 mph , 6 km/h
Temperature: 55°F , 13°C
Dew Point: 54°F , 12°C
Humidity: 94%
Barometer: 30.01 inHg , 1016.3 hPa
Summary: Mist
Clouds: Mostly cloudy
Visibility: 6 miles , 10 km
Cloud details: Partly cloudy 500 ft
Mostly cloudy 20000 ft
2024/02/25 11:53 KLAX 251153Z 01003KT 6SM BR SCT005 BKN200 13/12 A3001 RMK AO2 SLP163 T01330122 10156 20133 58013 $
KMHV - Mojave, California, USA
Distance from station: N 41mi, 66km
Updated: Sun, 25-Feb-2024 4:00am PST
Clear
Clear
 Wind from NW
Wind: NW 7 mph , 11 km/h
Temperature: 41°F , 5°C
Wind Chill: 36°F , 2°C
Dew Point: 32°F , 0°C
Humidity: 70%
Barometer: 30.07 inHg , 1018.3 hPa
Clouds: Clear
Visibility: 10 miles , 16 km
2024/02/25 12:00 KMHV 251200Z AUTO 32006KT 10SM CLR 05/00 A3007 RMK AO2
 
KFUL - Fullerton, California, USA
Distance from station: SSE 44mi, 70km
Updated: Sun, 25-Feb-2024 3:53am PST
Clear
Clear
 Wind from calm
Wind: Calm
Temperature: 54°F , 12°C
Dew Point: 50°F , 10°C
Humidity: 88%
Barometer: 30.01 inHg , 1016.3 hPa
Clouds: Clear
Visibility: 10 miles , 16 km
2024/02/25 11:53 KFUL 251153Z AUTO 00000KT 10SM CLR 12/10 A3001 RMK AO2 SLP161 T01220100 10150 20122 56012
KONT - Ontario, California, USA
Distance from station: SE 45mi, 72km
Updated: Sun, 25-Feb-2024 3:53am PST
Mostly cloudy
Mostly cloudy
 Wind from calm
Wind: Calm
Temperature: 54°F , 12°C
Dew Point: 39°F , 4°C
Humidity: 58%
Barometer: 30.02 inHg , 1016.6 hPa
Clouds: Mostly cloudy
Visibility: 10 miles , 16 km
Cloud details: Mostly cloudy 25000 ft
2024/02/25 11:53 KONT 251153Z 00000KT 10SM BKN250 12/04 A3002 RMK AO2 SLP159 T01220044 10150 20111 56009
 
KLGB - Long Beach, California, USA
Distance from station: S 46mi, 74km
Updated: Sun, 25-Feb-2024 3:53am PST
Clear
Clear
 Wind from calm
Wind: Calm
Temperature: 57°F , 14°C
Dew Point: 52°F , 11°C
Humidity: 82%
Barometer: 30.01 inHg , 1016.3 hPa
Clouds: Clear
Visibility: 9 miles , 14 km
2024/02/25 11:53 KLGB 251153Z AUTO 00000KT 9SM CLR 14/11 A3001 RMK AO2 SLP161 T01440111 10167 20144 58014
KVCV - Victorville, California, USA
Distance from station: E 46mi, 74km
Updated: Sun, 25-Feb-2024 4:15am PST
Clear
Clear
 Wind from SW
Wind: SW 5 mph , 7 km/h
Temperature: 41°F , 5°C
Wind Chill: 38°F , 3°C
Dew Point: 39°F , 4°C
Humidity: 93%
Barometer: 30.10 inHg , 1019.3 hPa
Clouds: Clear
Visibility: 10 miles , 16 km
2024/02/25 12:15 KVCV 251215Z AUTO 23004KT 10SM CLR 05/04 A3010 RMK AO2
 
KTSP - Tehachapi, California, USA
Distance from station: NNW 48mi, 77km
Updated: Sun, 25-Feb-2024 4:15am PST
Clear
Clear
 Wind from ESE
Wind: ESE 12 mph , 19 km/h
Temperature: 43°F , 6°C
Wind Chill: 37°F , 3°C
Dew Point: 28°F , -2°C
Humidity: 57%
Barometer: 30.09 inHg , 1019 hPa
Clouds: Clear
2024/02/25 12:15 KTSP 251215Z AUTO 11010KT CLR 06/M02 A3009 RMK AO2